createdAt,value
2018-04-11T00:01:58.343Z,64.60
2018-04-11T00:04:32.166Z,64.97
2018-04-11T00:07:05.915Z,65.19
2018-04-11T00:09:40.023Z,65.31
2018-04-11T00:12:13.969Z,65.49
2018-04-11T00:14:47.485Z,65.70
2018-04-11T00:17:20.969Z,66.04
2018-04-11T00:19:54.326Z,66.17
2018-04-11T00:22:27.803Z,65.84
2018-04-11T00:25:01.127Z,66.17
2018-04-11T00:27:34.441Z,66.33
2018-04-11T00:30:07.866Z,66.75
2018-04-11T00:32:41.132Z,67.08
2018-04-11T00:35:14.446Z,67.06
2018-04-11T00:37:47.962Z,67.16
2018-04-11T00:40:21.264Z,67.22
2018-04-11T00:42:54.653Z,67.38
2018-04-11T00:45:28.273Z,67.39
2018-04-11T00:48:01.988Z,67.34
2018-04-11T00:50:35.367Z,66.94
2018-04-11T00:53:17.337Z,66.52
2018-04-11T00:55:50.715Z,66.65
2018-04-11T00:58:24.045Z,66.88
2018-04-11T01:00:57.390Z,67.11
2018-04-11T01:03:30.842Z,67.28
2018-04-11T01:06:04.136Z,67.66
2018-04-11T01:08:37.600Z,67.36
2018-04-11T01:11:10.801Z,67.46
2018-04-11T01:13:44.150Z,67.76
2018-04-11T01:16:17.787Z,68.01
2018-04-11T01:18:51.530Z,68.10
2018-04-11T01:21:24.755Z,68.36
2018-04-11T01:23:58.005Z,68.57
2018-04-11T01:26:31.760Z,68.53
2018-04-11T01:29:05.150Z,68.42
2018-04-11T01:31:38.764Z,68.39
2018-04-11T01:34:12.293Z,67.54
2018-04-11T01:36:45.425Z,65.93
2018-04-11T01:39:18.894Z,64.80
2018-04-11T01:41:52.650Z,63.98
2018-04-11T01:44:26.003Z,63.76
2018-04-11T01:46:59.668Z,63.36
2018-04-11T01:49:32.878Z,63.33
2018-04-11T01:52:06.189Z,62.72
2018-04-11T01:54:39.516Z,62.34
2018-04-11T01:57:12.712Z,62.18
2018-04-11T01:59:45.949Z,62.34
2018-04-11T02:02:19.449Z,62.30
2018-04-11T02:04:53.502Z,62.28
2018-04-11T02:07:26.814Z,62.37
2018-04-11T02:10:00.119Z,62.34
2018-04-11T02:12:33.420Z,62.36
2018-04-11T02:15:06.975Z,62.95
2018-04-11T02:17:40.349Z,63.71
2018-04-11T02:20:13.579Z,63.96
2018-04-11T02:22:46.989Z,63.95
2018-04-11T02:25:20.206Z,64.19
2018-04-11T02:27:53.502Z,64.92
2018-04-11T02:30:27.009Z,64.78
2018-04-11T02:33:00.537Z,64.99
2018-04-11T02:35:34.182Z,65.50
2018-04-11T02:38:07.730Z,65.83
2018-04-11T02:40:41.020Z,65.83
2018-04-11T02:43:14.721Z,65.60
2018-04-11T02:45:48.276Z,65.65
2018-04-11T02:48:21.591Z,65.74
2018-04-11T02:50:55.107Z,65.69
2018-04-11T02:53:29.723Z,65.91
2018-04-11T02:56:02.956Z,65.57
2018-04-11T02:58:36.612Z,65.42
2018-04-11T03:01:10.505Z,65.43
2018-04-11T03:03:45.397Z,65.37
2018-04-11T03:06:19.048Z,65.44
2018-04-11T03:08:52.453Z,65.20
2018-04-11T03:11:25.945Z,65.28
2018-04-11T03:13:59.215Z,65.58
2018-04-11T03:16:32.544Z,65.22
2018-04-11T03:19:05.853Z,65.01
2018-04-11T03:21:39.482Z,65.31
2018-04-11T03:24:15.969Z,65.29
2018-04-11T03:26:49.505Z,65.77
2018-04-11T03:29:23.702Z,65.98
2018-04-11T03:31:56.989Z,66.13
2018-04-11T03:34:30.504Z,66.81
2018-04-11T03:37:03.709Z,67.90
2018-04-11T03:39:36.955Z,68.78
2018-04-11T03:42:10.282Z,69.43
2018-04-11T03:44:43.469Z,69.82
2018-04-11T03:47:16.903Z,70.21
2018-04-11T03:49:50.219Z,70.50
2018-04-11T03:52:23.826Z,70.79
2018-04-11T03:54:57.234Z,71.22
2018-04-11T03:57:30.533Z,71.51
2018-04-11T04:00:04.021Z,71.54
2018-04-11T04:02:40.925Z,71.89
2018-04-11T04:05:14.861Z,72.14
2018-04-11T04:07:48.199Z,72.25
2018-04-11T04:10:21.841Z,72.22
2018-04-11T04:12:55.419Z,72.37
2018-04-11T04:17:43.283Z,72.29
2018-04-11T04:20:20.557Z,72.86
2018-04-11T04:22:54.135Z,72.44
2018-04-11T04:25:27.611Z,72.60
2018-04-11T04:28:01.001Z,72.79
2018-04-11T04:30:34.238Z,72.87
2018-04-11T04:33:07.585Z,72.55
2018-04-11T04:35:41.269Z,72.42
2018-04-11T04:38:14.529Z,72.44
2018-04-11T04:40:47.743Z,72.17
2018-04-11T04:43:21.412Z,72.02
2018-04-11T04:45:54.978Z,72.15
2018-04-11T04:48:28.339Z,72.16
2018-04-11T04:51:02.054Z,72.19
2018-04-11T04:53:35.357Z,72.22
2018-04-11T04:56:08.751Z,72.24
2018-04-11T04:58:43.673Z,72.13
2018-04-11T05:01:17.939Z,71.52
2018-04-11T05:03:51.427Z,71.47
2018-04-11T05:06:24.905Z,71.68
2018-04-11T05:08:58.153Z,71.79
2018-04-11T05:11:31.425Z,71.63
2018-04-11T05:14:05.439Z,71.70
2018-04-11T05:16:38.770Z,71.77
2018-04-11T05:19:13.089Z,72.04
2018-04-11T05:21:47.054Z,71.81
2018-04-11T05:24:21.597Z,71.39
2018-04-11T05:26:55.752Z,70.98
2018-04-11T05:29:34.755Z,70.86
2018-04-11T05:32:17.055Z,70.54
2018-04-11T05:34:51.491Z,70.31
2018-04-11T05:37:41.531Z,69.98
2018-04-11T05:40:16.871Z,69.87
2018-04-11T05:42:50.691Z,69.74
2018-04-11T05:45:24.411Z,69.45
2018-04-11T05:47:58.110Z,69.23
2018-04-11T05:50:33.242Z,68.87
2018-04-11T05:53:06.718Z,68.26
2018-04-11T05:55:39.947Z,67.81
2018-04-11T05:58:16.123Z,67.44
2018-04-11T06:03:54.466Z,67.44
2018-04-11T06:06:28.338Z,67.27
2018-04-11T06:09:01.734Z,67.50
2018-04-11T06:11:35.792Z,66.91
2018-04-11T06:14:10.523Z,66.32
2018-04-11T06:16:45.307Z,65.71
2018-04-11T06:19:18.820Z,65.85
2018-04-11T06:21:52.579Z,65.49
2018-04-11T06:24:25.840Z,64.35
2018-04-11T06:26:59.539Z,63.21
2018-04-11T06:29:32.946Z,61.61
2018-04-11T06:32:06.576Z,60.45
2018-04-11T06:34:41.791Z,59.52
2018-04-11T06:37:15.700Z,59.44
2018-04-11T06:39:49.338Z,59.71
2018-04-11T06:42:23.127Z,59.48
2018-04-11T06:44:56.676Z,59.05
2018-04-11T06:47:29.988Z,59.34
2018-04-11T06:50:03.773Z,61.01
2018-04-11T06:52:38.379Z,60.96
2018-04-11T06:55:12.077Z,60.35
2018-04-11T06:57:45.592Z,60.37
2018-04-11T07:00:19.197Z,60.73
2018-04-11T07:02:52.631Z,60.85
2018-04-11T07:05:26.709Z,59.84
2018-04-11T07:08:00.386Z,59.38
2018-04-11T07:10:33.709Z,58.69
2018-04-11T07:13:07.569Z,57.58
2018-04-11T07:15:41.662Z,56.92
2018-04-11T07:18:15.256Z,56.14
2018-04-11T07:20:50.047Z,56.17
2018-04-11T07:23:23.604Z,55.22
2018-04-11T07:25:57.103Z,54.83
2018-04-11T07:28:30.438Z,54.65
2018-04-11T07:31:04.076Z,55.51
2018-04-11T07:33:38.562Z,55.38
2018-04-11T07:36:12.031Z,57.17
2018-04-11T07:38:45.669Z,56.96
2018-04-11T07:41:20.013Z,56.31
2018-04-11T07:43:55.634Z,55.98
2018-04-11T07:46:29.406Z,55.00
2018-04-11T07:49:04.039Z,55.51
2018-04-11T07:51:37.420Z,55.60
2018-04-11T07:54:10.908Z,55.90
2018-04-11T07:56:47.718Z,56.19
2018-04-11T07:59:22.681Z,56.82
2018-04-11T08:01:56.798Z,57.50
2018-04-11T08:04:30.574Z,57.94
2018-04-11T08:07:04.705Z,58.11
2018-04-11T08:09:38.154Z,57.15
2018-04-11T08:12:11.525Z,56.81
2018-04-11T08:14:45.276Z,56.68
2018-04-11T08:17:18.628Z,56.51
2018-04-11T08:19:52.066Z,55.92
2018-04-11T08:22:26.339Z,55.09
2018-04-11T08:25:02.663Z,53.89
2018-04-11T08:27:36.858Z,52.47
2018-04-11T08:30:10.784Z,51.65
2018-04-11T08:32:44.160Z,52.53
2018-04-11T08:35:18.257Z,53.55
2018-04-11T08:37:54.471Z,53.61
2018-04-11T08:40:28.299Z,54.18
2018-04-11T08:43:01.852Z,54.75
2018-04-11T08:45:35.195Z,54.35
2018-04-11T08:48:09.143Z,54.66
2018-04-11T08:50:44.743Z,55.40
2018-04-11T08:53:19.042Z,55.93
2018-04-11T08:55:52.964Z,55.78
2018-04-11T08:58:26.249Z,55.37
2018-04-11T09:00:59.749Z,55.37
2018-04-11T09:03:33.909Z,55.11
2018-04-11T09:06:07.366Z,56.00
2018-04-11T09:08:40.649Z,57.15
2018-04-11T09:11:15.115Z,58.60
2018-04-11T09:13:48.738Z,59.18
2018-04-11T09:16:22.352Z,59.46
2018-04-11T09:18:56.261Z,59.11
2018-04-11T09:21:29.615Z,60.60
2018-04-11T09:24:06.603Z,60.33
2018-04-11T09:26:42.002Z,60.51
2018-04-11T09:29:16.991Z,61.59
2018-04-11T09:32:04.067Z,61.94
2018-04-11T09:34:39.024Z,63.58
2018-04-11T09:37:12.725Z,62.84
2018-04-11T09:39:46.509Z,62.38
2018-04-11T09:42:21.176Z,61.60
2018-04-11T09:44:54.908Z,61.63
2018-04-11T09:47:28.411Z,62.16
2018-04-11T09:50:02.608Z,60.37
2018-04-11T09:52:36.642Z,59.54
2018-04-11T09:55:10.342Z,61.46
2018-04-11T09:57:49.843Z,61.17
2018-04-11T10:00:24.096Z,60.83
2018-04-11T10:03:01.466Z,58.96
2018-04-11T10:05:37.187Z,59.25
2018-04-11T10:08:11.572Z,58.03
2018-04-11T10:10:45.457Z,57.67
2018-04-11T10:13:19.041Z,57.59
2018-04-11T10:15:52.660Z,57.11
2018-04-11T10:18:28.414Z,55.92
2018-04-11T10:21:03.137Z,56.96
2018-04-11T10:23:36.820Z,56.61
2018-04-11T10:26:10.160Z,57.80
2018-04-11T10:28:43.712Z,56.11
2018-04-11T10:31:17.298Z,55.18
2018-04-11T10:33:50.664Z,53.17
2018-04-11T10:36:24.605Z,54.54
2018-04-11T10:38:57.952Z,53.20
2018-04-11T10:41:31.552Z,53.07
2018-04-11T10:44:05.219Z,53.17
2018-04-11T10:46:38.536Z,50.75
2018-04-11T10:49:11.708Z,49.43
2018-04-11T10:51:45.824Z,48.98
2018-04-11T10:54:19.170Z,48.81
2018-04-11T10:56:52.477Z,48.02
2018-04-11T10:59:26.096Z,49.47
2018-04-11T11:01:59.479Z,49.57
2018-04-11T11:04:33.152Z,51.32
2018-04-11T11:07:10.922Z,50.22
2018-04-11T11:09:44.417Z,48.95
2018-04-11T11:12:22.605Z,48.25
2018-04-11T11:15:01.122Z,47.93
2018-04-11T11:17:37.896Z,47.74
2018-04-11T11:20:15.076Z,48.03
2018-04-11T11:22:54.756Z,47.84
2018-04-11T11:25:33.314Z,47.23
2018-04-11T11:28:14.313Z,47.20
2018-04-11T11:30:54.567Z,46.10
2018-04-11T11:33:32.371Z,46.81
2018-04-11T11:36:11.204Z,46.86
2018-04-11T11:38:46.387Z,47.19
2018-04-11T11:41:23.598Z,47.37
2018-04-11T11:43:59.489Z,47.57
2018-04-11T11:46:55.801Z,48.79
2018-04-11T11:52:03.216Z,47.49
2018-04-11T11:54:39.138Z,46.85
2018-04-11T11:57:17.733Z,47.20
2018-04-11T11:59:55.696Z,47.19
2018-04-11T12:02:31.852Z,47.61
2018-04-11T12:05:16.521Z,48.27
2018-04-11T12:08:01.977Z,49.73
2018-04-11T12:10:44.285Z,49.61
2018-04-11T12:13:21.844Z,48.50
2018-04-11T12:15:58.143Z,48.76
2018-04-11T12:18:36.302Z,48.61
2018-04-11T12:21:12.155Z,48.96
2018-04-11T12:23:48.015Z,48.98
2018-04-11T12:26:24.522Z,49.07
2018-04-11T12:29:00.505Z,49.72
2018-04-11T12:31:39.902Z,50.47
2018-04-11T12:34:15.858Z,49.82
2018-04-11T12:36:51.607Z,48.63
2018-04-11T12:39:28.121Z,49.84
2018-04-11T12:43:29.638Z,49.10
2018-04-11T12:46:08.667Z,49.86
2018-04-11T12:48:45.199Z,49.56
2018-04-11T12:51:26.015Z,49.57
2018-04-11T12:54:02.712Z,49.42
2018-04-11T12:56:39.160Z,48.32
2018-04-11T12:59:15.707Z,48.09
2018-04-11T13:01:51.681Z,48.47
2018-04-11T13:04:27.482Z,48.64
2018-04-11T13:07:05.261Z,48.85
2018-04-11T13:09:41.792Z,48.06
2018-04-11T13:12:18.470Z,48.96
2018-04-11T13:14:54.809Z,48.47
2018-04-11T13:17:30.399Z,49.16
2018-04-11T13:20:06.429Z,49.25
2018-04-11T13:22:44.039Z,49.83
2018-04-11T13:25:19.855Z,48.95
2018-04-11T13:27:55.873Z,48.51
2018-04-11T13:30:31.564Z,48.11
2018-04-11T13:33:07.523Z,46.40
2018-04-11T13:35:43.798Z,45.39
2018-04-11T13:38:19.611Z,43.85
2018-04-11T13:40:56.622Z,43.97
2018-04-11T13:43:33.123Z,44.89
2018-04-11T13:46:10.225Z,44.45
2018-04-11T13:48:46.761Z,45.66
2018-04-11T13:51:23.673Z,47.43
2018-04-11T13:53:59.912Z,48.27
2018-04-11T13:56:35.763Z,48.76
2018-04-11T13:59:12.426Z,48.97
2018-04-11T14:01:52.067Z,48.54
2018-04-11T14:04:28.548Z,49.35
2018-04-11T14:07:04.670Z,49.31
2018-04-11T14:09:40.989Z,50.35
2018-04-11T14:12:17.075Z,50.78
2018-04-11T14:14:53.842Z,51.19
2018-04-11T14:17:29.872Z,50.70
2018-04-11T14:20:07.535Z,50.79
2018-04-11T14:22:43.595Z,50.41
2018-04-11T14:25:20.494Z,50.70
2018-04-11T14:27:56.701Z,50.74
2018-04-11T14:30:34.278Z,49.79
2018-04-11T14:33:10.619Z,48.48
2018-04-11T14:35:46.751Z,47.35
2018-04-11T14:38:22.901Z,47.64
2018-04-11T14:40:58.865Z,47.53
2018-04-11T14:43:35.669Z,47.71
2018-04-11T14:46:12.525Z,47.67
2018-04-11T14:48:48.220Z,47.39
2018-04-11T14:51:24.854Z,48.01
2018-04-11T14:54:00.569Z,48.34
2018-04-11T14:56:38.748Z,48.01
2018-04-11T14:59:15.085Z,47.32
2018-04-11T15:01:54.321Z,47.79
2018-04-11T15:04:37.334Z,47.97
2018-04-11T15:07:13.828Z,48.31
2018-04-11T15:09:54.117Z,48.95
2018-04-11T15:12:30.111Z,49.34
2018-04-11T15:15:05.856Z,49.59
2018-04-11T15:17:44.505Z,50.10
2018-04-11T15:20:23.421Z,50.17
2018-04-11T15:23:01.383Z,49.85
2018-04-11T15:25:41.323Z,49.26
2018-04-11T15:28:31.662Z,50.17
2018-04-11T15:31:14.678Z,50.43
2018-04-11T15:33:57.580Z,50.60
2018-04-11T15:36:34.248Z,49.81
2018-04-11T15:39:10.583Z,50.04
2018-04-11T15:41:47.127Z,50.10
2018-04-11T15:44:23.944Z,50.29
2018-04-11T15:47:00.789Z,50.28
2018-04-11T15:49:37.424Z,50.37
2018-04-11T15:52:13.885Z,50.61
2018-04-11T15:54:55.548Z,50.70
2018-04-11T15:57:32.426Z,51.40
2018-04-11T16:00:09.142Z,51.37
2018-04-11T16:02:52.184Z,51.29
2018-04-11T16:05:32.194Z,51.91
2018-04-11T16:08:09.914Z,51.68
2018-04-11T16:10:51.208Z,51.82
2018-04-11T16:13:29.508Z,52.10
2018-04-11T16:16:10.069Z,52.43
2018-04-11T16:18:48.761Z,52.58
2018-04-11T16:21:27.231Z,52.81
2018-04-11T16:24:03.836Z,53.64
2018-04-11T16:26:40.514Z,53.61
2018-04-11T16:29:20.633Z,54.09
2018-04-11T16:31:59.262Z,54.22
2018-04-11T16:34:38.041Z,54.54
2018-04-11T16:37:13.960Z,54.83
2018-04-11T16:39:54.460Z,55.24
2018-04-11T16:42:42.656Z,55.54
2018-04-11T16:45:18.462Z,55.69
2018-04-11T16:47:54.520Z,56.20
2018-04-11T16:50:33.345Z,56.67
2018-04-11T16:53:09.650Z,56.87
2018-04-11T16:55:47.886Z,57.51
2018-04-11T16:58:24.782Z,58.56
2018-04-11T17:01:02.429Z,58.23
2018-04-11T17:03:44.593Z,58.68
2018-04-11T17:06:20.403Z,59.82
2018-04-11T17:08:56.598Z,59.75
2018-04-11T17:11:36.791Z,60.24
2018-04-11T17:14:15.095Z,61.35
2018-04-11T17:16:51.762Z,60.87
2018-04-11T17:19:28.759Z,61.45
2018-04-11T17:24:17.228Z,61.92
2018-04-11T17:27:04.386Z,62.30
2018-04-11T17:31:59.915Z,62.88
2018-04-11T17:34:38.469Z,64.46
2018-04-11T17:37:15.437Z,64.57
2018-04-11T17:39:52.521Z,65.16
2018-04-11T17:42:28.798Z,65.50
2018-04-11T17:45:06.193Z,66.01
2018-04-11T17:47:44.751Z,66.07
2018-04-11T17:50:20.797Z,66.56
2018-04-11T17:52:57.607Z,66.69
2018-04-11T17:55:34.593Z,67.01
2018-04-11T17:58:39.335Z,67.81
2018-04-11T18:01:13.018Z,67.86
2018-04-11T18:03:47.443Z,67.91
2018-04-11T18:06:21.861Z,68.23
2018-04-11T18:08:56.074Z,68.62
2018-04-11T18:11:30.039Z,68.86
2018-04-11T18:14:04.355Z,68.99
2018-04-11T18:16:39.300Z,69.20
2018-04-11T18:19:13.020Z,69.58
2018-04-11T18:21:53.160Z,69.85
2018-04-11T18:24:28.737Z,69.40
2018-04-11T18:27:02.275Z,68.89
2018-04-11T18:29:37.236Z,68.30
2018-04-11T18:32:13.098Z,68.02
2018-04-11T18:34:47.731Z,67.63
2018-04-11T18:37:22.957Z,67.23
2018-04-11T18:39:56.636Z,66.77
2018-04-11T18:42:30.083Z,66.45
2018-04-11T18:45:03.958Z,66.01
2018-04-11T18:47:37.844Z,66.77
2018-04-11T18:50:11.199Z,67.36
2018-04-11T18:52:44.778Z,67.44
2018-04-11T18:55:18.667Z,67.72
2018-04-11T18:57:52.227Z,68.40
2018-04-11T19:00:26.642Z,68.66
2018-04-11T19:03:00.631Z,68.61
2018-04-11T19:05:34.036Z,68.54
2018-04-11T19:08:07.606Z,68.61
2018-04-11T19:10:41.030Z,69.17
2018-04-11T19:14:56.362Z,68.92
2018-04-11T19:17:30.085Z,68.57
2018-04-11T19:20:03.657Z,68.87
2018-04-11T19:22:38.880Z,69.42
2018-04-11T19:25:12.417Z,69.54
2018-04-11T19:27:46.458Z,69.36
2018-04-11T19:30:19.976Z,69.71
2018-04-11T19:32:53.304Z,70.34
2018-04-11T19:35:26.862Z,70.68
2018-04-11T19:38:00.181Z,71.24
2018-04-11T19:40:33.565Z,71.48
2018-04-11T19:43:08.006Z,71.67
2018-04-11T19:45:41.855Z,71.81
2018-04-11T19:48:15.924Z,72.25
2018-04-11T19:50:50.154Z,72.55
2018-04-11T19:53:23.451Z,72.84
2018-04-11T19:55:56.778Z,72.99
2018-04-11T19:58:34.918Z,73.23
2018-04-11T20:01:10.603Z,73.40
2018-04-11T20:03:45.920Z,73.50
2018-04-11T20:06:19.330Z,73.43
2018-04-11T20:08:53.117Z,73.52
2018-04-11T20:11:26.582Z,73.47
2018-04-11T20:14:00.050Z,73.35
2018-04-11T20:16:34.381Z,73.36
2018-04-11T20:19:08.186Z,73.36
2018-04-11T20:21:41.999Z,73.54
2018-04-11T20:24:16.823Z,73.41
2018-04-11T20:26:52.704Z,73.74
2018-04-11T20:29:28.717Z,74.14
2018-04-11T20:32:02.810Z,74.29
2018-04-11T20:34:40.137Z,74.54
2018-04-11T20:37:13.663Z,74.22
2018-04-11T20:39:47.525Z,74.44
2018-04-11T20:42:20.763Z,74.35
2018-04-11T20:44:54.397Z,74.21
2018-04-11T20:47:28.128Z,73.63
2018-04-11T20:50:02.948Z,73.35
2018-04-11T20:52:36.632Z,73.28
2018-04-11T20:55:09.946Z,73.55
2018-04-11T20:57:43.529Z,73.91
2018-04-11T21:00:21.405Z,74.40
2018-04-11T21:02:56.523Z,74.69
2018-04-11T21:05:30.303Z,74.78
2018-04-11T21:08:03.709Z,74.94
2018-04-11T21:10:37.467Z,74.95
2018-04-11T21:13:11.677Z,75.11
2018-04-11T21:15:44.955Z,75.40
2018-04-11T21:18:19.199Z,75.32
2018-04-11T21:20:53.383Z,75.56
2018-04-11T21:23:26.696Z,75.85
2018-04-11T21:26:00.424Z,75.85
2018-04-11T21:28:34.443Z,76.12
2018-04-11T21:31:07.764Z,76.56
2018-04-11T21:33:41.492Z,76.89
2018-04-11T21:36:15.350Z,77.55
2018-04-11T21:38:48.676Z,77.51
2018-04-11T21:41:22.360Z,77.43
2018-04-11T21:43:55.712Z,77.41
2018-04-11T21:46:30.333Z,77.17
2018-04-11T21:49:04.049Z,77.30
2018-04-11T21:51:37.282Z,77.46
2018-04-11T21:54:10.524Z,77.41
2018-04-11T21:56:44.689Z,77.49
2018-04-11T21:59:18.403Z,77.49
2018-04-11T22:01:52.752Z,77.67
2018-04-11T22:04:26.339Z,78.00
2018-04-11T22:06:59.604Z,77.66
2018-04-11T22:09:33.720Z,77.78
2018-04-11T22:12:07.757Z,77.37
2018-04-11T22:14:41.222Z,77.64
2018-04-11T22:17:14.578Z,77.05
2018-04-11T22:19:48.570Z,77.28
2018-04-11T22:22:21.832Z,77.63
2018-04-11T22:24:55.143Z,77.65
2018-04-11T22:27:29.269Z,77.89
2018-04-11T22:30:02.761Z,77.69
2018-04-11T22:32:38.865Z,77.76
2018-04-11T22:35:13.333Z,77.58
2018-04-11T22:37:47.562Z,77.20
2018-04-11T22:40:21.131Z,76.97
2018-04-11T22:42:54.399Z,76.98
2018-04-11T22:45:27.799Z,76.84
2018-04-11T22:48:02.358Z,76.67
2018-04-11T22:50:35.860Z,76.66
2018-04-11T22:53:09.313Z,76.82
2018-04-11T22:55:44.138Z,77.24
2018-04-11T22:58:17.883Z,77.04
2018-04-11T23:00:51.475Z,77.30
2018-04-11T23:03:24.906Z,77.37
2018-04-11T23:05:58.318Z,76.86
2018-04-11T23:08:33.729Z,77.11
2018-04-11T23:11:07.018Z,77.42
2018-04-11T23:13:40.307Z,77.89
2018-04-11T23:16:17.029Z,77.85
2018-04-11T23:18:50.644Z,77.22
2018-04-11T23:21:24.591Z,77.43
2018-04-11T23:23:58.400Z,77.43
2018-04-11T23:26:31.848Z,77.19
2018-04-11T23:29:05.465Z,76.95
2018-04-11T23:31:38.887Z,76.66
2018-04-11T23:36:43.856Z,76.21
2018-04-11T23:39:17.936Z,76.28
2018-04-11T23:41:51.492Z,76.78
2018-04-11T23:44:24.937Z,76.69
2018-04-11T23:46:58.383Z,77.02
2018-04-11T23:49:31.671Z,77.70
2018-04-11T23:52:05.674Z,77.94
2018-04-11T23:54:39.309Z,78.22
2018-04-11T23:57:15.021Z,78.30
2018-04-11T23:59:50.332Z,78.34
